Time;durP1;ratioP1;P1;durP2;ratioP2;P2;SDS_P1;SDS_P2;PMS_P1;PMS_P2;Temp;Humidity;BMP_temperature;BMP_pressure;BME280_temperature;BME280_humidity;BME280_pressure;Samples;Min_cycle;Max_cycle;Signal;HPM_P1;HPM_P2
2022/07/31 00:00:39;;;;;;;;;0.25;0.00;;;;;25.52;44.98;101317.25;4864152;29;45572;-61
2022/07/31 00:03:05;;;;;;;;;0.00;0.00;;;;;25.56;45.24;101313.56;4863471;29;45439;-63
2022/07/31 00:05:30;;;;;;;;;0.40;0.40;;;;;25.54;45.09;101309.38;4878044;29;45362;-61
2022/07/31 00:07:56;;;;;;;;;0.25;0.25;;;;;25.37;44.88;101290.19;4857797;29;45454;-62
2022/07/31 00:10:22;;;;;;;;;1.75;1.75;;;;;25.43;45.29;101312.31;4863923;29;45992;-61
2022/07/31 00:12:47;;;;;;;;;1.00;1.00;;;;;25.33;45.50;101291.94;4847187;29;45331;-61
2022/07/31 00:15:13;;;;;;;;;0.75;0.75;;;;;25.42;45.51;101306.97;4880871;29;45428;-61
2022/07/31 00:17:38;;;;;;;;;1.00;1.00;;;;;25.35;45.98;101312.13;4880940;29;45374;-61
2022/07/31 00:20:05;;;;;;;;;1.25;1.25;;;;;25.27;45.91;101300.41;4863678;29;46405;-62
2022/07/31 00:22:31;;;;;;;;;1.00;1.00;;;;;25.23;45.89;101293.72;4848355;29;45400;-62
2022/07/31 00:24:56;;;;;;;;;0.25;0.25;;;;;25.38;45.72;101301.13;4881002;29;45144;-62
2022/07/31 00:27:22;;;;;;;;;0.00;0.00;;;;;25.26;45.69;101293.13;4864021;29;45322;-62
2022/07/31 00:29:48;;;;;;;;;1.00;1.00;;;;;25.36;45.76;101305.38;4848406;29;45874;-62
2022/07/31 00:32:13;;;;;;;;;1.00;1.00;;;;;25.33;45.78;101303.19;4863373;29;45398;-60
2022/07/31 00:34:39;;;;;;;;;1.50;1.50;;;;;25.25;45.88;101283.03;4880456;29;45362;-62
2022/07/31 00:37:04;;;;;;;;;2.50;2.50;;;;;25.35;45.73;101306.50;4880644;29;45407;-62
2022/07/31 00:39:31;;;;;;;;;4.00;4.00;;;;;25.36;45.80;101305.38;4863605;29;46380;-62
2022/07/31 00:41:56;;;;;;;;;3.20;3.00;;;;;25.24;46.29;101306.63;4880433;29;45406;-63
2022/07/31 00:44:23;;;;;;;;;1.00;1.00;;;;;25.11;46.57;101307.31;4863826;29;45419;-61
2022/07/31 00:46:48;;;;;;;;;5.60;5.60;;;;;25.09;46.26;101313.25;4880540;29;45485;-61
2022/07/31 00:49:14;;;;;;;;;6.50;6.50;;;;;25.02;46.97;101310.78;4880145;29;46293;-62
2022/07/31 00:51:39;;;;;;;;;1.50;1.50;;;;;25.10;46.15;101302.84;4863414;29;45868;-61
2022/07/31 00:54:06;;;;;;;;;1.00;1.00;;;;;25.14;46.29;101301.94;4880402;29;45452;-62
2022/07/31 00:56:31;;;;;;;;;0.40;0.40;;;;;25.18;46.10;101314.28;4880342;29;45320;-62
2022/07/31 00:58:57;;;;;;;;;2.25;2.00;;;;;25.13;46.27;101302.28;4880087;29;45761;-62
2022/07/31 01:01:22;;;;;;;;;4.00;3.00;;;;;24.90;46.23;101280.31;4863326;29;45428;-61
2022/07/31 01:03:48;;;;;;;;;2.50;2.50;;;;;25.02;46.57;101299.56;4847981;29;45347;-62
2022/07/31 01:06:14;;;;;;;;;2.00;2.00;;;;;25.04;46.53;101313.31;4863635;29;45505;-62
2022/07/31 01:08:39;;;;;;;;;1.00;1.00;;;;;25.04;46.47;101311.31;4862447;29;46704;-62
2022/07/31 01:11:27;;;;;;;;;5.00;3.00;;;;;25.06;46.66;101313.84;4879900;29;45521;-62
2022/07/31 01:13:58;;;;;;;;;2.60;2.60;;;;;25.05;47.23;101309.38;4864132;29;45899;-62
2022/07/31 01:16:26;;;;;;;;;2.00;2.00;;;;;24.87;46.90;101292.13;4848401;29;45458;-62
2022/07/31 01:18:54;;;;;;;;;1.00;1.00;;;;;25.04;46.97;101318.94;4879901;29;46256;-63
2022/07/31 01:21:23;;;;;;;;;1.20;1.20;;;;;24.65;47.39;101267.34;4863222;29;45350;-62
2022/07/31 01:23:57;;;;;;;;;1.00;0.60;;;;;24.89;46.98;101325.53;4863443;29;45343;-62
2022/07/31 01:26:36;;;;;;;;;1.00;1.00;;;;;24.81;46.95;101309.34;4883543;29;45856;-61
2022/07/31 01:29:08;;;;;;;;;0.40;0.40;;;;;24.72;47.39;101307.13;4882762;29;45835;-61
2022/07/31 01:31:45;;;;;;;;;0.00;0.00;;;;;24.81;47.43;101321.38;4882965;29;45374;-62
2022/07/31 01:34:25;;;;;;;;;0.80;0.20;;;;;24.81;47.45;101314.94;4847857;29;45426;-62
2022/07/31 01:37:15;;;;;;;;;0.40;0.20;;;;;24.81;47.55;101323.38;4849115;29;45520;-62
2022/07/31 01:39:45;;;;;;;;;1.80;1.00;;;;;24.68;47.75;101322.03;4837033;29;45584;-62
2022/07/31 01:42:12;;;;;;;;;0.80;0.00;;;;;24.77;47.91;101318.28;4847657;29;45387;-62
2022/07/31 01:44:40;;;;;;;;;0.40;0.40;;;;;24.78;47.62;101317.16;4832179;29;45419;-61
2022/07/31 01:47:05;;;;;;;;;3.00;0.00;;;;;24.78;47.67;101328.38;4847767;29;45399;-61
2022/07/31 01:49:31;;;;;;;;;1.25;1.25;;;;;24.58;47.87;101294.91;4832098;29;46143;-62
2022/07/31 01:51:57;;;;;;;;;0.50;0.50;;;;;24.57;48.55;101315.69;4847296;29;45498;-62
2022/07/31 01:54:22;;;;;;;;;0.50;0.50;;;;;24.55;48.47;101312.34;4847256;29;45460;-61
2022/07/31 01:56:48;;;;;;;;;0.00;0.00;;;;;24.60;47.97;101315.91;4846741;29;45417;-61
2022/07/31 01:59:14;;;;;;;;;0.00;0.00;;;;;24.58;48.55;101317.34;4831906;29;46405;-62
2022/07/31 02:01:39;;;;;;;;;2.00;0.00;;;;;24.54;48.30;101305.88;4847284;29;45435;-62
2022/07/31 02:04:05;;;;;;;;;0.00;0.00;;;;;24.56;48.30;101314.00;4831986;29;45468;-62
2022/07/31 02:06:30;;;;;;;;;1.00;1.00;;;;;24.53;48.13;101318.22;4844859;28;45855;-61
2022/07/31 02:08:56;;;;;;;;;0.00;0.00;;;;;24.44;48.51;101298.38;4850004;29;45411;-62
2022/07/31 02:11:22;;;;;;;;;0.00;0.00;;;;;24.55;48.50;101313.16;4850367;29;45446;-62
2022/07/31 02:13:47;;;;;;;;;1.25;0.50;;;;;24.52;48.48;101318.50;4865831;29;45379;-62
2022/07/31 02:16:13;;;;;;;;;0.00;0.00;;;;;24.36;48.84;101301.81;4866246;29;45234;-62
2022/07/31 02:18:39;;;;;;;;;0.00;0.00;;;;;24.41;49.42;101317.75;4849713;29;45963;-62
2022/07/31 02:21:04;;;;;;;;;0.75;0.75;;;;;24.28;49.46;101303.28;4882239;29;45202;-62
2022/07/31 02:23:29;;;;;;;;;1.25;1.25;;;;;24.36;49.41;101319.50;4865517;29;45350;-62
2022/07/31 02:25:55;;;;;;;;;1.00;1.00;;;;;24.31;49.90;101325.13;4866091;29;45337;-61
2022/07/31 02:28:21;;;;;;;;;1.00;1.00;;;;;24.23;49.65;101309.75;4865209;29;45810;-62
2022/07/31 02:30:47;;;;;;;;;1.00;1.00;;;;;24.23;49.94;101320.97;4849941;29;45367;-61
2022/07/31 02:33:15;;;;;;;;;2.40;2.00;;;;;24.14;49.88;101308.72;4865295;29;45450;-62
2022/07/31 02:35:41;;;;;;;;;2.20;2.20;;;;;23.93;50.08;101291.16;4849639;29;45375;-62
2022/07/31 02:38:06;;;;;;;;;1.00;1.00;;;;;24.09;50.56;101317.16;4881638;29;45482;-61
2022/07/31 02:40:32;;;;;;;;;2.25;1.00;;;;;23.92;50.12;101290.31;4865443;29;46060;-61
2022/07/31 02:42:57;;;;;;;;;2.50;2.50;;;;;24.05;50.58;101324.41;4849510;29;45435;-61
2022/07/31 02:45:23;;;;;;;;;4.25;3.00;;;;;24.06;50.68;101314.91;4865734;29;45478;-61
2022/07/31 02:47:48;;;;;;;;;2.00;2.00;;;;;24.09;50.13;101312.38;4865340;29;45544;-62
2022/07/31 02:50:15;;;;;;;;;3.00;2.00;;;;;24.08;50.65;101307.88;4865436;29;45353;-62
2022/07/31 02:52:42;;;;;;;;;1.60;1.60;;;;;23.95;50.92;101289.72;4865540;29;45510;-62
2022/07/31 02:55:07;;;;;;;;;1.20;1.20;;;;;23.99;51.08;101294.75;4882382;29;45551;-62
2022/07/31 02:57:33;;;;;;;;;1.25;1.25;;;;;23.98;51.21;101313.53;4849763;29;46811;-64
2022/07/31 02:59:59;;;;;;;;;2.20;2.00;;;;;23.91;51.10;101299.84;4834133;29;45501;-62
2022/07/31 03:02:29;;;;;;;;;3.00;2.00;;;;;23.85;51.31;101306.59;4849657;29;45305;-64
2022/07/31 03:04:56;;;;;;;;;1.80;1.80;;;;;23.81;51.63;101306.34;4850401;29;45767;-63
2022/07/31 03:07:23;;;;;;;;;1.00;1.00;;;;;23.80;52.00;101307.47;4833941;29;48041;-64
2022/07/31 03:09:50;;;;;;;;;1.00;1.00;;;;;23.79;51.68;101304.94;4849588;29;45418;-65
2022/07/31 03:12:20;;;;;;;;;1.20;1.20;;;;;23.73;52.23;101309.75;4850016;29;45453;-65
2022/07/31 03:14:48;;;;;;;;;3.40;2.80;;;;;23.81;51.60;101306.34;4850387;29;45627;-64
2022/07/31 03:17:15;;;;;;;;;3.00;2.00;;;;;23.64;51.90;101301.09;4850127;29;46309;-61
2022/07/31 03:19:40;;;;;;;;;2.60;2.00;;;;;23.64;52.44;101295.50;4881579;29;45227;-61
2022/07/31 03:22:06;;;;;;;;;4.50;3.00;;;;;23.43;52.51;101266.75;4881611;29;45337;-61
2022/07/31 03:24:31;;;;;;;;;4.25;3.00;;;;;23.57;52.90;101300.56;4864870;29;45250;-61
2022/07/31 03:26:58;;;;;;;;;5.25;4.75;;;;;23.53;52.53;101289.09;4864857;29;45939;-63
2022/07/31 03:29:25;;;;;;;;;2.00;2.00;;;;;23.55;52.57;101289.66;4881124;29;45164;-62
2022/07/31 03:31:50;;;;;;;;;1.00;1.00;;;;;23.50;52.62;101288.84;4864650;29;45502;-62
2022/07/31 03:34:16;;;;;;;;;4.00;4.00;;;;;23.52;52.94;101292.19;4881554;29;45380;-60
2022/07/31 03:36:41;;;;;;;;;7.50;5.75;;;;;23.40;53.00;101284.97;4881385;29;46402;-61
2022/07/31 03:39:07;;;;;;;;;3.25;3.25;;;;;23.18;53.12;101259.25;4881367;29;45923;-61
2022/07/31 03:41:32;;;;;;;;;5.00;5.00;;;;;23.28;52.95;101270.44;4881500;29;45439;-61
2022/07/31 03:43:57;;;;;;;;;5.50;5.00;;;;;23.35;53.33;101276.59;4864608;29;45632;-62
2022/07/31 03:46:23;;;;;;;;;6.00;4.25;;;;;23.21;53.10;101244.69;4881330;29;46799;-62
2022/07/31 03:48:50;;;;;;;;;7.00;4.75;;;;;23.38;53.08;101275.19;4848628;29;45413;-61
2022/07/31 03:51:16;;;;;;;;;4.80;4.20;;;;;23.36;52.92;101272.66;4881305;29;45480;-62
2022/07/31 03:53:41;;;;;;;;;4.50;4.50;;;;;23.41;52.88;101278.25;4881474;29;45314;-62
2022/07/31 03:56:07;;;;;;;;;3.00;3.00;;;;;23.41;52.59;101278.25;4881067;29;45386;-63
2022/07/31 03:58:32;;;;;;;;;5.50;4.25;;;;;23.44;52.97;101295.59;4864224;29;45814;-61
2022/07/31 04:00:58;;;;;;;;;6.75;6.00;;;;;23.33;52.63;101273.25;4881257;29;45434;-61
2022/07/31 04:03:29;;;;;;;;;5.75;5.75;;;;;23.42;52.40;101287.47;4864519;29;45379;-61
2022/07/31 04:05:54;;;;;;;;;5.60;5.60;;;;;23.37;52.36;101271.53;4831925;29;47438;-61
2022/07/31 04:08:20;;;;;;;;;7.00;7.00;;;;;23.29;52.54;101256.16;4880425;29;45396;-61
2022/07/31 04:10:45;;;;;;;;;9.00;8.00;;;;;23.45;52.61;101280.44;4880511;29;45230;-63
2022/07/31 04:13:11;;;;;;;;;7.50;7.50;;;;;23.45;52.65;101286.91;4881088;29;45239;-62
2022/07/31 04:15:37;;;;;;;;;9.00;9.00;;;;;23.51;52.11;101282.13;4880797;29;45380;-62
2022/07/31 04:18:02;;;;;;;;;12.75;8.00;;;;;23.52;52.63;101269.78;4880748;29;45501;-62
2022/07/31 04:20:28;;;;;;;;;9.00;8.25;;;;;23.51;52.56;101270.91;4863723;29;45272;-61
2022/07/31 04:22:53;;;;;;;;;11.00;9.25;;;;;23.51;52.56;101282.13;4880894;29;45223;-62
2022/07/31 04:25:19;;;;;;;;;10.00;8.75;;;;;23.47;52.29;101267.84;4880102;29;45466;-62
2022/07/31 04:27:44;;;;;;;;;10.00;9.50;;;;;23.52;52.34;101279.03;4863644;29;45337;-60
2022/07/31 04:30:10;;;;;;;;;9.50;9.50;;;;;23.50;52.44;101284.09;4880404;29;45773;-62
2022/07/31 04:32:36;;;;;;;;;9.60;9.60;;;;;23.54;52.30;101282.38;4880341;29;45615;-61
2022/07/31 04:35:02;;;;;;;;;7.25;7.00;;;;;23.55;51.90;101289.66;4880162;29;45962;-61
2022/07/31 04:37:27;;;;;;;;;10.60;10.60;;;;;23.39;51.90;101260.03;4863277;29;45437;-62
2022/07/31 04:39:53;;;;;;;;;9.25;8.50;;;;;23.17;52.76;101244.44;4880270;29;45678;-61
2022/07/31 04:42:18;;;;;;;;;6.50;6.50;;;;;23.34;52.16;101269.31;4880470;29;45600;-61
2022/07/31 04:44:44;;;;;;;;;7.00;7.00;;;;;23.45;52.64;101295.31;4879827;29;46437;-61
2022/07/31 04:47:09;;;;;;;;;6.00;6.00;;;;;23.31;52.78;101261.47;4880480;29;45395;-61
2022/07/31 04:49:34;;;;;;;;;5.00;5.00;;;;;23.47;52.59;101290.25;4847672;29;45420;-62
2022/07/31 04:52:00;;;;;;;;;5.75;5.75;;;;;23.48;52.78;101291.09;4880337;29;45650;-62
2022/07/31 04:54:26;;;;;;;;;5.50;5.00;;;;;23.30;52.80;101259.78;4879773;29;47790;-62
2022/07/31 04:56:51;;;;;;;;;6.25;6.25;;;;;23.48;52.45;101291.09;4863287;29;45429;-62
2022/07/31 04:59:19;;;;;;;;;5.50;4.50;;;;;23.45;52.50;101289.72;4863794;29;45350;-62
2022/07/31 05:01:44;;;;;;;;;6.80;6.80;;;;;23.36;53.09;101283.84;4883756;29;45367;-62
2022/07/31 05:04:10;;;;;;;;;4.50;4.50;;;;;23.38;52.68;101286.38;4850993;29;45569;-62
2022/07/31 05:06:40;;;;;;;;;4.25;4.25;;;;;23.27;52.86;101263.97;4866459;29;45497;-61
2022/07/31 05:09:07;;;;;;;;;5.60;5.60;;;;;23.38;52.75;101295.59;4857785;29;45829;-62
2022/07/31 05:11:33;;;;;;;;;4.20;4.20;;;;;23.29;53.19;101302.91;4866890;29;45531;-62
2022/07/31 05:13:59;;;;;;;;;5.75;5.75;;;;;23.08;53.25;101268.50;4880929;29;45889;-62
2022/07/31 05:16:25;;;;;;;;;7.20;6.00;;;;;23.08;53.21;101268.50;4866638;29;45425;-62
2022/07/31 05:18:51;;;;;;;;;6.00;6.00;;;;;23.15;53.65;101285.84;4866632;29;45495;-62
2022/07/31 05:21:17;;;;;;;;;2.75;2.50;;;;;23.08;53.39;101294.56;4850843;29;45482;-62
2022/07/31 05:23:45;;;;;;;;;6.40;6.40;;;;;23.14;53.68;101296.22;4883067;29;46033;-62
2022/07/31 05:26:11;;;;;;;;;3.80;3.80;;;;;23.25;53.51;101296.19;4883134;29;45336;-62
2022/07/31 05:28:37;;;;;;;;;5.40;4.40;;;;;23.04;53.72;101271.03;4883434;29;45339;-62
2022/07/31 05:31:03;;;;;;;;;4.20;4.20;;;;;23.28;53.26;101295.63;4866345;29;45364;-61
2022/07/31 05:33:28;;;;;;;;;3.00;3.00;;;;;23.13;53.22;101260.97;4882972;29;46237;-60
2022/07/31 05:35:55;;;;;;;;;4.75;3.50;;;;;23.29;53.54;101286.94;4883052;29;45247;-61
2022/07/31 05:38:20;;;;;;;;;3.20;3.20;;;;;23.23;53.71;101278.84;4883140;29;45466;-62
2022/07/31 05:40:45;;;;;;;;;3.00;3.00;;;;;23.12;53.46;101252.84;4883492;29;45427;-62
2022/07/31 05:43:11;;;;;;;;;2.25;2.25;;;;;23.26;53.72;101279.09;4883142;29;46804;-62
2022/07/31 05:45:36;;;;;;;;;3.25;2.75;;;;;23.23;53.27;101259.25;4883033;29;45402;-62
2022/07/31 05:48:02;;;;;;;;;5.00;4.00;;;;;23.45;53.33;101286.06;4866325;29;45466;-60
2022/07/31 05:50:27;;;;;;;;;4.00;2.50;;;;;23.32;52.93;101263.13;4866199;29;45320;-62
2022/07/31 05:52:54;;;;;;;;;4.25;4.25;;;;;23.34;53.02;101272.13;4882947;29;46468;-62
2022/07/31 05:55:20;;;;;;;;;3.80;3.80;;;;;23.47;52.88;101304.25;4882780;29;45561;-63
2022/07/31 05:57:45;;;;;;;;;3.20;3.00;;;;;23.45;52.86;101303.72;4865922;29;45290;-62
2022/07/31 06:00:11;;;;;;;;;3.25;3.00;;;;;23.29;52.57;101275.75;4883128;29;45378;-62
2022/07/31 06:02:37;;;;;;;;;3.60;3.60;;;;;23.49;52.30;101301.19;4882768;29;46088;-61
2022/07/31 06:05:02;;;;;;;;;3.00;3.00;;;;;23.52;52.28;101303.38;4882666;29;45357;-62
2022/07/31 06:07:28;;;;;;;;;3.25;3.25;;;;;23.57;52.42;101314.59;4866231;29;45332;-61
2022/07/31 06:09:53;;;;;;;;;4.50;2.75;;;;;23.57;51.95;101300.56;4865661;29;45733;-60
2022/07/31 06:12:19;;;;;;;;;5.00;3.25;;;;;23.60;51.67;101294.41;4865426;29;46456;-61
2022/07/31 06:14:45;;;;;;;;;3.50;3.50;;;;;23.61;52.11;101287.69;4882431;29;45274;-61
2022/07/31 06:17:10;;;;;;;;;4.75;4.00;;;;;23.69;51.86;101292.69;4865951;29;45472;-62
2022/07/31 06:19:36;;;;;;;;;4.00;4.00;;;;;23.59;52.01;101272.28;4882548;29;45481;-61
2022/07/31 06:22:01;;;;;;;;;3.25;2.00;;;;;23.52;52.26;101284.63;4882021;29;46008;-62
2022/07/31 06:24:26;;;;;;;;;4.25;4.25;;;;;23.50;52.60;101300.91;4882355;29;45371;-61
2022/07/31 06:26:57;;;;;;;;;6.00;3.25;;;;;23.46;52.68;101312.94;4882780;29;45430;-61
2022/07/31 06:29:22;;;;;;;;;4.40;3.40;;;;;23.43;52.04;101300.38;4865568;29;45546;-61
2022/07/31 06:31:48;;;;;;;;;6.00;5.00;;;;;23.39;52.44;101300.09;4881909;29;45391;-62
2022/07/31 06:34:13;;;;;;;;;4.25;4.00;;;;;23.50;52.21;101302.84;4881669;29;45294;-62
2022/07/31 06:36:39;;;;;;;;;4.50;4.00;;;;;23.48;52.02;101308.72;4882019;29;45467;-62
2022/07/31 06:39:04;;;;;;;;;3.00;3.00;;;;;23.32;52.32;101291.13;4882118;29;45529;-62
2022/07/31 06:41:47;;;;;;;;;8.25;5.75;;;;;23.20;52.51;101279.41;4865096;29;45458;-60
2022/07/31 06:44:14;;;;;;;;;7.20;4.60;;;;;23.52;52.43;101309.00;4854359;29;45431;-61
2022/07/31 06:46:39;;;;;;;;;4.60;4.60;;;;;23.51;52.39;101307.31;4865058;29;45435;-62
2022/07/31 06:49:05;;;;;;;;;3.25;3.00;;;;;23.37;52.56;101299.53;4865425;29;45746;-62
2022/07/31 06:51:30;;;;;;;;;3.50;3.50;;;;;23.33;52.37;101311.59;4865002;29;46777;-61
2022/07/31 06:53:56;;;;;;;;;4.75;4.75;;;;;23.14;52.30;101281.38;4881794;29;45411;-61
2022/07/31 06:56:22;;;;;;;;;4.00;4.00;;;;;23.08;52.75;101288.09;4822055;29;45744;-62
2022/07/31 06:58:47;;;;;;;;;4.00;4.00;;;;;23.23;52.70;101296.47;4863632;29;45453;-62
2022/07/31 07:01:13;;;;;;;;;6.50;5.00;;;;;23.41;52.14;101311.84;4863936;29;46577;-61
2022/07/31 07:03:39;;;;;;;;;5.50;5.00;;;;;23.48;51.56;101302.31;4881555;29;45368;-61
2022/07/31 07:06:05;;;;;;;;;4.20;4.20;;;;;23.61;51.82;101321.28;4881747;29;45296;-61
2022/07/31 07:08:30;;;;;;;;;4.75;4.75;;;;;23.67;51.22;101316.50;4864921;29;45596;-59
2022/07/31 07:10:55;;;;;;;;;4.00;4.00;;;;;23.63;51.65;101323.81;4881352;29;46436;-59
2022/07/31 07:13:21;;;;;;;;;4.00;4.00;;;;;23.41;51.15;101277.38;4881623;29;45247;-57
2022/07/31 07:15:46;;;;;;;;;3.00;3.00;;;;;23.68;51.32;101307.81;4865068;29;45384;-62
2022/07/31 07:18:12;;;;;;;;;4.00;4.00;;;;;23.77;51.11;101310.84;4882292;29;45372;-61
2022/07/31 07:20:38;;;;;;;;;4.25;3.00;;;;;23.88;51.03;101317.25;4881455;29;46169;-62
2022/07/31 07:23:03;;;;;;;;;5.00;4.00;;;;;23.89;50.34;101310.50;4863916;29;45331;-61
2022/07/31 07:25:29;;;;;;;;;3.25;3.25;;;;;23.94;50.54;101316.09;4864932;29;45320;-61
2022/07/31 07:27:55;;;;;;;;;3.00;3.00;;;;;23.90;50.72;101305.75;4865331;29;45292;-61
2022/07/31 07:30:21;;;;;;;;;5.60;5.00;;;;;23.78;50.23;101300.47;4881468;29;46629;-61
2022/07/31 07:32:47;;;;;;;;;3.60;3.60;;;;;23.83;50.22;101320.91;4864756;29;45435;-60
2022/07/31 07:35:12;;;;;;;;;5.00;5.00;;;;;23.93;49.70;101330.38;4846028;29;45446;-61
2022/07/31 07:37:39;;;;;;;;;6.00;4.75;;;;;23.81;49.91;101300.72;4862682;29;45388;-61
2022/07/31 07:40:05;;;;;;;;;3.40;3.40;;;;;24.02;49.60;101325.84;4845721;29;46473;-60
2022/07/31 07:42:31;;;;;;;;;4.60;4.60;;;;;24.03;49.82;101333.13;4830300;29;45370;-61
2022/07/31 07:44:57;;;;;;;;;3.25;3.25;;;;;23.98;49.91;101319.16;4845798;29;45380;-60
2022/07/31 07:47:23;;;;;;;;;4.40;4.40;;;;;24.01;49.31;101338.19;4861382;29;45370;-59
2022/07/31 07:49:48;;;;;;;;;6.50;5.25;;;;;23.83;49.75;101300.44;4830441;29;46152;-61
2022/07/31 07:52:14;;;;;;;;;6.75;6.75;;;;;23.94;49.75;101329.25;4862309;29;45323;-61
2022/07/31 07:54:41;;;;;;;;;5.00;5.00;;;;;23.92;49.83;101337.97;4862619;29;45507;-60
2022/07/31 07:57:07;;;;;;;;;5.20;4.80;;;;;23.81;49.64;101300.72;4830778;29;45274;-59
2022/07/31 07:59:32;;;;;;;;;6.50;4.50;;;;;24.04;49.25;101326.41;4862574;29;46334;-60
2022/07/31 08:01:58;;;;;;;;;7.75;4.50;;;;;24.11;48.85;101320.50;4862092;29;45378;-62
2022/07/31 08:04:23;;;;;;;;;5.75;5.75;;;;;24.15;48.87;101326.34;4862476;29;45372;-63
2022/07/31 08:06:49;;;;;;;;;7.00;5.75;;;;;24.16;48.96;101317.66;4862579;29;45310;-61
2022/07/31 08:09:14;;;;;;;;;11.25;10.50;;;;;24.31;48.70;101339.16;4845293;29;45571;-61
2022/07/31 08:11:39;;;;;;;;;4.25;4.00;;;;;24.42;48.91;101334.31;4862126;29;45442;-61
2022/07/31 08:14:05;;;;;;;;;6.50;5.25;;;;;24.49;48.54;101326.41;4861178;29;45398;-62
2022/07/31 08:16:31;;;;;;;;;6.00;6.00;;;;;24.46;48.22;101335.41;4861288;29;45308;-63
2022/07/31 08:19:00;;;;;;;;;5.00;5.00;;;;;24.48;48.21;101341.56;4845194;29;47502;-64
2022/07/31 08:21:25;;;;;;;;;7.60;6.60;;;;;24.54;48.40;101339.53;4830025;29;45345;-68
2022/07/31 08:23:51;;;;;;;;;6.25;6.25;;;;;24.62;47.94;101338.94;4830173;29;45368;-63
2022/07/31 08:26:17;;;;;;;;;5.00;5.00;;;;;24.49;48.07;101326.41;4830438;29;45380;-64
2022/07/31 08:28:46;;;;;;;;;6.80;6.80;;;;;24.31;48.84;101339.16;4829965;29;45669;-64
2022/07/31 08:31:11;;;;;;;;;4.00;4.00;;;;;24.25;48.51;101312.28;4845638;29;45487;-63
2022/07/31 08:33:37;;;;;;;;;6.00;4.75;;;;;24.38;48.61;101332.38;4844640;29;45398;-60
2022/07/31 08:36:03;;;;;;;;;6.50;5.75;;;;;24.44;48.72;101326.44;4880492;29;45666;-62
2022/07/31 08:38:29;;;;;;;;;6.00;6.00;;;;;24.55;48.46;101340.38;4880651;29;46074;-62
2022/07/31 08:40:54;;;;;;;;;5.00;5.00;;;;;24.41;48.56;101312.16;4863587;29;45495;-61
2022/07/31 08:43:20;;;;;;;;;6.00;6.00;;;;;24.60;47.88;101329.13;4848924;29;45325;-63
2022/07/31 08:45:45;;;;;;;;;7.00;6.00;;;;;24.70;47.53;101326.22;4863930;29;45407;-61
2022/07/31 08:48:11;;;;;;;;;7.75;7.25;;;;;24.77;47.47;101329.53;4847744;29;46620;-61
2022/07/31 08:50:37;;;;;;;;;6.50;6.00;;;;;24.85;48.04;101327.22;4847907;29;45364;-61
2022/07/31 08:53:03;;;;;;;;;6.00;6.00;;;;;24.76;47.46;101302.59;4880263;29;45364;-61
2022/07/31 08:55:29;;;;;;;;;7.00;7.00;;;;;24.93;47.74;101314.53;4880730;29;45615;-61
2022/07/31 08:57:54;;;;;;;;;6.50;6.50;;;;;24.87;47.69;101325.00;4863295;29;45642;-61
2022/07/31 09:00:21;;;;;;;;;5.00;5.00;;;;;24.88;47.40;101327.47;4863468;29;45377;-62
2022/07/31 09:02:47;;;;;;;;;6.60;6.00;;;;;24.94;47.46;101330.25;4880438;29;45400;-61
2022/07/31 09:05:12;;;;;;;;;7.00;6.00;;;;;24.92;47.82;101329.72;4848205;29;45350;-61
2022/07/31 09:07:38;;;;;;;;;6.75;5.75;;;;;24.97;48.18;101326.88;4879827;29;45901;-61
2022/07/31 09:10:19;;;;;;;;;5.00;5.00;;;;;25.08;47.97;101331.22;4879750;29;45161;-60
2022/07/31 09:12:45;;;;;;;;;7.80;7.80;;;;;25.10;47.53;101325.31;4864469;29;45431;-61
2022/07/31 09:15:23;;;;;;;;;7.00;6.50;;;;;24.98;47.76;101320.94;4880187;29;45557;-57
2022/07/31 09:17:49;;;;;;;;;6.60;6.60;;;;;24.77;47.79;101300.63;4879774;29;46175;-59
2022/07/31 09:20:26;;;;;;;;;6.75;6.75;;;;;24.77;47.68;101309.06;4847383;29;46618;-59
2022/07/31 09:23:02;;;;;;;;;7.80;7.40;;;;;24.85;47.94;101328.09;4879835;29;45450;-61
2022/07/31 09:25:28;;;;;;;;;6.40;6.00;;;;;24.78;47.46;101313.53;4862893;29;45426;-61
2022/07/31 09:27:59;;;;;;;;;8.00;8.00;;;;;24.78;47.55;101322.78;4847119;29;45331;-61
2022/07/31 09:30:24;;;;;;;;;9.20;7.20;;;;;24.71;48.22;101315.84;4847509;29;45325;-60
2022/07/31 09:32:50;;;;;;;;;6.25;6.25;;;;;24.69;48.46;101318.94;4861723;29;45402;-62
2022/07/31 09:35:15;;;;;;;;;6.50;6.50;;;;;24.66;48.06;101305.50;4844012;29;45897;-64
2022/07/31 09:37:44;;;;;;;;;6.00;6.00;;;;;24.82;47.78;101327.84;4857707;29;46483;-64
2022/07/31 09:40:10;;;;;;;;;6.80;6.20;;;;;24.65;47.69;101284.16;4826537;29;45827;-64
2022/07/31 09:42:42;;;;;;;;;6.25;6.25;;;;;24.75;47.91;101300.06;4856881;29;46080;-63
2022/07/31 09:45:18;;;;;;;;;7.40;7.40;;;;;24.81;48.33;101315.75;4859191;29;45502;-64
2022/07/31 09:47:44;;;;;;;;;7.80;6.00;;;;;24.84;47.94;101323.63;4862060;29;45889;-64
2022/07/31 09:50:10;;;;;;;;;7.75;7.25;;;;;24.81;47.37;101332.59;4877064;29;45453;-65
2022/07/31 09:52:35;;;;;;;;;7.75;6.25;;;;;24.81;47.84;101324.19;4877217;29;45418;-65
2022/07/31 09:55:05;;;;;;;;;8.00;8.00;;;;;24.84;48.07;101331.19;4878280;28;45884;-65
2022/07/31 09:57:31;;;;;;;;;8.20;6.40;;;;;24.81;47.46;101318.56;4814345;29;46395;-64
2022/07/31 09:59:56;;;;;;;;;10.25;9.25;;;;;24.70;47.75;101309.38;4856691;29;45631;-66
2022/07/31 10:02:24;;;;;;;;;7.75;7.75;;;;;24.81;47.90;101324.19;4860146;29;45501;-62
2022/07/31 10:04:50;;;;;;;;;6.80;6.20;;;;;24.80;47.40;101302.88;4845352;29;45525;-65
2022/07/31 10:07:15;;;;;;;;;6.25;6.25;;;;;24.77;47.76;101306.25;4846106;29;45751;-65
2022/07/31 10:09:41;;;;;;;;;7.75;6.75;;;;;24.94;47.56;101314.25;4845947;29;45780;-65
2022/07/31 10:12:08;;;;;;;;;6.25;6.25;;;;;24.96;47.80;101316.78;4861505;29;45827;-65
2022/07/31 10:14:35;;;;;;;;;9.00;7.40;;;;;24.97;47.27;101318.44;4862146;29;45777;-63
2022/07/31 10:17:03;;;;;;;;;8.80;7.40;;;;;24.99;47.31;101308.59;4845158;29;45469;-64
2022/07/31 10:19:31;;;;;;;;;7.60;7.60;;;;;24.90;47.49;101291.56;4861942;29;45529;-65
2022/07/31 10:21:58;;;;;;;;;5.40;5.40;;;;;25.04;47.17;101311.31;4861291;29;45377;-65
2022/07/31 10:24:26;;;;;;;;;7.60;7.60;;;;;25.05;47.67;101306.56;4846697;29;45582;-64
2022/07/31 10:26:51;;;;;;;;;9.40;7.40;;;;;25.14;47.55;101313.19;4846205;29;45639;-65
2022/07/31 10:29:17;;;;;;;;;9.50;9.50;;;;;25.15;47.96;101298.03;4844066;29;45468;-65
2022/07/31 10:31:44;;;;;;;;;6.75;6.75;;;;;25.12;47.00;101309.84;4878076;29;45425;-65
2022/07/31 10:34:12;;;;;;;;;6.60;5.80;;;;;25.04;46.77;101288.03;4837389;29;45651;-65
2022/07/31 10:36:38;;;;;;;;;9.00;8.40;;;;;25.15;47.17;101294.38;4845805;29;45898;-64
2022/07/31 10:39:30;;;;;;;;;6.00;5.50;;;;;25.24;46.92;101305.81;4845738;29;45400;-63
2022/07/31 10:42:05;;;;;;;;;6.20;6.20;;;;;25.18;46.66;101291.81;4860170;29;45805;-62
2022/07/31 10:44:35;;;;;;;;;8.20;7.00;;;;;25.20;46.87;101299.94;4862224;29;45487;-64
2022/07/31 10:47:11;;;;;;;;;5.20;5.20;;;;;25.15;47.30;101305.59;4846092;29;46640;-67
2022/07/31 10:49:45;;;;;;;;;6.80;6.80;;;;;24.93;47.20;101262.06;4878041;29;45487;-66
2022/07/31 10:52:10;;;;;;;;;10.00;8.60;;;;;25.19;46.79;101306.69;4877950;29;45467;-62
2022/07/31 10:54:44;;;;;;;;;6.00;6.00;;;;;24.93;46.88;101250.81;4860231;29;45393;-62
2022/07/31 10:57:23;;;;;;;;;6.60;6.40;;;;;25.23;47.30;101290.91;4842815;29;45534;-60
2022/07/31 10:59:49;;;;;;;;;6.80;6.20;;;;;25.34;47.07;101293.59;4834065;29;45457;-66
2022/07/31 11:02:32;;;;;;;;;10.00;6.00;;;;;25.40;46.91;101298.03;4860800;29;45662;-62
2022/07/31 11:05:14;;;;;;;;;5.20;5.20;;;;;25.29;46.98;101270.06;4846728;29;45953;-62
2022/07/31 11:07:41;;;;;;;;;7.20;7.20;;;;;25.54;47.05;101295.34;4859620;29;46788;-62
2022/07/31 11:10:13;;;;;;;;;5.20;5.20;;;;;25.55;46.73;101288.56;4845108;29;45739;-64
2022/07/31 11:12:38;;;;;;;;;7.20;7.20;;;;;25.62;46.26;101283.44;4860546;29;45809;-63
2022/07/31 11:15:15;;;;;;;;;8.50;7.25;;;;;25.43;46.38;101247.69;4860980;29;45667;-64
2022/07/31 11:17:40;;;;;;;;;6.60;6.00;;;;;25.80;46.21;101283.75;4861073;29;45868;-64
2022/07/31 11:20:37;;;;;;;;;6.75;6.75;;;;;25.86;46.01;101276.91;4877181;29;45725;-64
2022/07/31 11:23:04;;;;;;;;;8.20;7.00;;;;;25.91;45.61;101282.47;4859656;29;45521;-63